Terminal Aerodrome Forecast
Issued by NWS

Home | Current Version | Previous Version | Text Only | Print | Product List | Glossary On
Versions: 1 2 3 4 5 6 7 8 9 10 11 12 13 14 15 16 17 18 19 20 21 22
122
FTUS43 KDTX 290701 AAA
TAFMBS
TAF AMD
KMBS 290701Z 2907/3006 01003KT 1/2SM FG VV002
      TEMPO 2908/2912 1/4SM FG VV001
     FM291300 03005KT 1SM BR BKN004
     FM291400 03005KT P6SM BKN015
     FM291600 06005KT P6SM SCT040
     FM292000 03005KT P6SM SKC
     FM300100 VRB03KT P6SM BKN250=

USA.gov is the U.S. government's official web portal to all federal, state and local government web resources and services.